Terminal Aerodrome Forecast
Issued by NWS

Home | Current Version | Previous Version | Text Only | Print | Product List | Glossary On
Versions: 1 2 3 4 5 6 7 8 9 10 11 12 13 14 15 16 17 18 19 20 21 22 23 24 25 26 27 28 29 30 31 32 33 34 35 36 37 38 39 40
000
FTUS44 KHGX 211120
TAFCXO
TAF
KCXO 211120Z 2112/2212 VRB03KT P6SM FEW150 BKN250
     FM211500 11006KT P6SM FEW060 BKN120
     FM212100 14008KT P6SM FEW050 SCT070
     FM220300 14003KT P6SM SCT015 SCT050
     FM221000 VRB03KT 4SM BR OVC009=

USA.gov is the U.S. government's official web portal to all federal, state and local government web resources and services.